Preview of NWS' New Version of Forecast
This preview is not operational and should not be used for support decisions.

Terminal Aerodrome Forecast (TAF)

Issued by National Weather Service (NWS)

                            
253 
FTUS42 KKEY 252320
TAFMTH
TAF
KMTH 252320Z 2600/2624 11007KT P6SM FEW025=